Аэропорт: Ленкорань. Ленкорань

ICAO: UBBL

METAR:
2021-10-23 02:00:00
UBBL 230200Z 00000KT 9999 SCT050 08/08 Q1022 R33/CLRD// NOSIG RMK MT OP
METAR:
2021-10-22 23:26:00
TAF UBBL 222326Z 2300/2324 VRB04KT 9000 SCT030 SCT100 TX18/2310Z TN07/2301Z TEMPO 2300/2304 3000 BR SCT010 BECMG 2306/2308 34010KT